Puerto del Rosario, Spain
Current Conditions -  °F | °C
As of 9:00 AM on Wednesday 28 Jan 2015 (Local Time) from GCFV Reporting Station
Broken Clouds Broken Clouds  
Wind Chill: 63°   Ceiling: 3300
Heat Index: 63°   Visibility: 6mi
Dew Point: 48°   Wind: 17mph
Humidity: 59%   Direction: 40°NE
Pressure: 30.36"   Gusts: NA
Location:  28.5°N, 13.86°W
Report Text: GCFV 280900Z 04015KT 9999 BKN033 17/09 Q1028
Loading
Personal Weather Stations






























Interactive Weather Map New forecast layout! Learn more

10-Day Weather Forecast

Advertisements
Track Severe Weather on mobile